< Cyclone 197410 1974 Season Cyclone 197412 >
Cyclone 197411 (WANDA)
General InformationTrack Information on Google MapsDetailed Wind Information || ResourceGoogle EarthGE AnimationAtom FeedGeoJSON
Detalied Best Track (Time Zone = UTC)
Year Month Day Hour Lat. Long. Pressure (hPa) Wind (kt) Class Image Chart
1974 1 20 14 -17.6 148.8 1004 25 2 -- --
1974 1 20 17 -17.9 149.3 1002 25 2 -- --
1974 1 20 20 -18.1 149.7 1002 25 2 -- --
1974 1 20 23 -18.2 150.0 1003 25 2 -- --
1974 1 21 02 -18.3 150.2 1004 25 2 -- --
1974 1 21 05 -18.3 150.4 1002 25 2 -- --
1974 1 21 08 -18.4 150.6 1003 25 2 -- --
1974 1 21 11 -18.5 150.8 1004 25 2 -- --
1974 1 21 14 -18.5 151.2 1004 25 2 -- --
1974 1 21 17 -18.5 151.7 1002 25 2 -- --
1974 1 21 20 -18.5 152.3 1003 25 2 -- --
1974 1 21 23 -18.5 152.7 1004 25 2 -- --
1974 1 22 02 -18.5 152.9 1004 25 2 -- --
1974 1 22 05 -18.5 153.0 1003 25 2 -- --
1974 1 22 08 -18.6 153.1 1004 25 2 -- --
1974 1 22 11 -18.7 153.2 1006 25 2 -- --
1974 1 22 14 -18.9 153.3 1005 25 2 -- --
1974 1 22 17 -19.1 153.5 1004 25 2 -- --
1974 1 22 20 -19.4 153.9 1005 25 2 -- --
1974 1 22 23 -19.8 154.3 1005 25 2 -- --
1974 1 23 02 -20.2 154.5 1005 25 2 -- --
1974 1 23 05 -20.6 154.5 1003 25 2 -- --
1974 1 23 08 -21.0 154.4 1002 30 2 -- --
1974 1 23 11 -21.4 154.2 1000 30 2 -- --
1974 1 23 14 -22.0 154.0 1000 30 2 -- --
1974 1 23 17 -22.5 153.8 999 30 2 -- --
1974 1 23 20 -23.0 153.7 999 30 2 -- --
1974 1 23 23 -23.7 153.6 1000 30 2 -- --
1974 1 24 02 -24.5 153.5 1000 35 3 -- --
1974 1 24 05 -25.1 153.4 997 45 3 -- --
1974 1 24 08 -25.4 153.1 997 50 4 -- --
1974 1 24 11 -25.7 152.8 998 50 4 -- --
1974 1 24 14 -26.0 152.5 998 50 4 -- --
1974 1 24 17 -26.2 152.2 1000 50 4 -- --
1974 1 24 20 -26.5 151.9 1003 30 2 -- --
1974 1 24 23 -26.8 151.4 1003 30 2 -- --
1974 1 25 02 -26.9 151.0 1003 20 2 -- --
1974 1 25 05 -27.1 150.5 1001 20 2 -- --
1974 1 25 08 -27.2 149.9 1003 20 2 -- --
< Cyclone 197410 1974 Season Cyclone 197412 >

Help